Time;durP1;ratioP1;P1;durP2;ratioP2;P2;SDS_P1;SDS_P2;PMS_P1;PMS_P2;Temp;Humidity;BMP_temperature;BMP_pressure;BME280_temperature;BME280_humidity;BME280_pressure;Samples;Min_cycle;Max_cycle;Signal;HPM_P1;HPM_P2
2022/04/18 00:01:52;;;;;;;76.88;51.20;;;19.20;53.60;;;;;;4934135;28;89856;-39
2022/04/18 00:04:18;;;;;;;78.00;51.22;;;19.20;53.50;;;;;;4942928;28;90143;-38
2022/04/18 00:06:44;;;;;;;77.18;51.28;;;19.20;54.10;;;;;;4945186;28;90828;-36
2022/04/18 00:09:09;;;;;;;77.63;51.33;;;19.20;54.10;;;;;;4931306;28;91389;-38
2022/04/18 00:11:35;;;;;;;76.82;51.00;;;19.20;53.60;;;;;;4930081;28;91234;-38
2022/04/18 00:14:01;;;;;;;77.63;51.25;;;19.20;53.70;;;;;;4937522;28;94127;-38
2022/04/18 00:16:27;;;;;;;76.57;51.38;;;19.10;53.60;;;;;;4942685;28;90218;-35
2022/04/18 00:18:53;;;;;;;77.15;51.38;;;19.10;53.50;;;;;;4942033;28;89987;-39
2022/04/18 00:21:19;;;;;;;78.20;51.35;;;19.10;53.40;;;;;;4935524;28;90919;-34
2022/04/18 00:23:45;;;;;;;77.88;51.30;;;19.10;53.30;;;;;;4943294;28;90796;-40
2022/04/18 00:26:11;;;;;;;78.80;51.55;;;19.10;53.30;;;;;;4941484;28;90494;-39
2022/04/18 00:28:37;;;;;;;77.72;51.22;;;19.10;53.30;;;;;;4930901;28;90714;-39
2022/04/18 00:31:03;;;;;;;77.03;51.08;;;19.10;53.30;;;;;;4943838;28;91124;-35
2022/04/18 00:33:29;;;;;;;76.90;51.42;;;19.00;53.30;;;;;;4945993;28;89661;-39
2022/04/18 00:35:55;;;;;;;77.63;51.40;;;19.00;53.30;;;;;;4935721;28;91040;-38
2022/04/18 00:38:22;;;;;;;77.97;51.10;;;19.00;53.30;;;;;;4941854;28;92328;-39
2022/04/18 00:40:48;;;;;;;76.88;51.15;;;19.00;53.30;;;;;;4940734;28;90313;-39
2022/04/18 00:43:13;;;;;;;76.95;51.13;;;19.00;53.30;;;;;;4941556;28;91059;-36
2022/04/18 00:45:39;;;;;;;76.65;51.22;;;19.00;53.30;;;;;;4939123;28;91005;-37
2022/04/18 00:48:05;;;;;;;77.03;51.35;;;19.00;53.40;;;;;;4946599;28;92856;-38
2022/04/18 00:50:33;;;;;;;76.97;51.15;;;19.00;53.40;;;;;;4942896;28;91519;-39
2022/04/18 00:53:00;;;;;;;77.60;51.35;;;19.00;53.40;;;;;;4941459;28;90233;-40
2022/04/18 00:55:27;;;;;;;76.80;51.30;;;18.90;53.40;;;;;;4941562;28;90249;-34
2022/04/18 00:57:54;;;;;;;76.15;51.22;;;18.90;53.40;;;;;;4948265;28;90201;-40
2022/04/18 01:00:21;;;;;;;77.05;51.25;;;18.90;53.40;;;;;;4934312;28;90459;-38
2022/04/18 01:02:47;;;;;;;77.95;51.20;;;18.90;53.50;;;;;;4933358;28;90902;-39
2022/04/18 01:05:12;;;;;;;76.85;51.20;;;18.80;53.40;;;;;;4936054;28;90007;-38
2022/04/18 01:07:39;;;;;;;76.63;51.28;;;18.90;53.40;;;;;;4939726;28;90100;-41
2022/04/18 01:10:06;;;;;;;77.78;51.13;;;18.90;53.50;;;;;;4933674;28;96707;-38
2022/04/18 01:12:32;;;;;;;78.30;51.40;;;18.80;53.50;;;;;;4938400;28;91661;-39
2022/04/18 01:14:58;;;;;;;77.28;51.13;;;18.80;53.50;;;;;;4941013;28;90630;-36
2022/04/18 01:17:25;;;;;;;76.70;51.13;;;18.80;53.50;;;;;;4935366;28;91099;-38
2022/04/18 01:19:51;;;;;;;77.63;51.38;;;18.80;53.50;;;;;;4940872;28;90421;-40
2022/04/18 01:22:18;;;;;;;76.68;51.05;;;18.80;53.50;;;;;;4943193;28;92105;-36
2022/04/18 01:30:14;;;;;;;76.03;50.97;;;18.80;53.50;;;;;;4940651;28;89993;-34
2022/04/18 01:32:40;;;;;;;76.43;50.95;;;18.80;53.50;;;;;;4941348;28;91210;-38
2022/04/18 01:35:06;;;;;;;75.97;50.85;;;18.70;53.50;;;;;;4942172;28;91284;-40
2022/04/18 01:37:32;;;;;;;76.28;50.85;;;18.80;53.60;;;;;;4940094;28;90331;-38
2022/04/18 01:39:57;;;;;;;76.47;51.22;;;18.70;53.50;;;;;;4931434;28;91745;-38
2022/04/18 01:42:23;;;;;;;76.70;51.03;;;18.70;53.60;;;;;;4930778;28;93146;-36
2022/04/18 01:44:49;;;;;;;76.57;50.92;;;18.70;53.60;;;;;;4934579;28;90713;-36
2022/04/18 01:47:15;;;;;;;75.72;50.85;;;18.70;53.50;;;;;;4936257;28;90922;-39
2022/04/18 01:49:40;;;;;;;75.90;50.97;;;18.70;53.60;;;;;;4932833;28;90408;-38
2022/04/18 01:52:06;;;;;;;76.05;51.00;;;18.70;53.60;;;;;;4938596;28;93383;-39
2022/04/18 01:54:32;;;;;;;76.15;50.83;;;18.70;53.60;;;;;;4935789;28;93590;-39
2022/04/18 01:56:58;;;;;;;76.35;50.95;;;18.70;53.50;;;;;;4943677;28;90960;-35
2022/04/18 01:59:23;;;;;;;76.10;50.85;;;18.70;53.50;;;;;;4942874;28;91032;-40
2022/04/18 02:01:50;;;;;;;76.22;50.92;;;18.70;53.60;;;;;;4936430;28;92743;-37
2022/04/18 02:04:15;;;;;;;75.63;50.65;;;18.60;53.40;;;;;;4941517;28;89809;-37
2022/04/18 02:06:41;;;;;;;76.32;51.08;;;18.60;53.50;;;;;;4950002;28;91373;-39
2022/04/18 02:09:07;;;;;;;76.38;51.08;;;18.60;53.50;;;;;;4947283;28;90099;-38
2022/04/18 02:11:32;;;;;;;75.40;50.80;;;18.60;53.40;;;;;;4945310;28;90131;-34
2022/04/18 02:13:58;;;;;;;76.25;50.95;;;18.60;53.40;;;;;;4944987;28;90608;-35
2022/04/18 02:16:25;;;;;;;75.82;50.88;;;18.60;53.50;;;;;;4955730;28;89262;-38
2022/04/18 02:18:50;;;;;;;75.78;50.90;;;18.60;53.50;;;;;;4953458;28;90089;-40
2022/04/18 02:21:17;;;;;;;75.57;50.85;;;18.50;53.40;;;;;;4947453;28;90257;-36
2022/04/18 02:23:43;;;;;;;76.85;50.80;;;18.60;53.50;;;;;;4947719;28;90805;-39
2022/04/18 02:26:09;;;;;;;76.18;50.95;;;18.60;53.50;;;;;;4950315;28;90018;-36
2022/04/18 02:28:35;;;;;;;75.82;50.85;;;18.50;53.40;;;;;;4950427;28;89792;-41
2022/04/18 02:31:02;;;;;;;75.63;50.75;;;18.50;53.40;;;;;;4952399;28;90129;-38
2022/04/18 02:33:28;;;;;;;76.72;51.17;;;18.50;53.40;;;;;;4947175;28;95333;-38
2022/04/18 02:35:54;;;;;;;75.63;50.75;;;18.50;53.50;;;;;;4955075;28;89883;-38
2022/04/18 02:38:19;;;;;;;75.82;50.75;;;18.50;53.40;;;;;;4952625;28;90603;-38
2022/04/18 02:40:46;;;;;;;75.43;50.65;;;18.50;53.50;;;;;;4942910;28;89380;-38
2022/04/18 02:43:14;;;;;;;75.55;50.47;;;18.50;53.40;;;;;;4945748;28;91494;-39
2022/04/18 02:45:40;;;;;;;76.85;50.58;;;18.50;53.40;;;;;;4952314;28;89954;-40
2022/04/18 02:48:06;;;;;;;75.68;50.80;;;18.50;53.50;;;;;;4948572;28;91325;-36
2022/04/18 02:50:32;;;;;;;75.75;50.67;;;18.50;53.40;;;;;;4946621;28;90529;-38
2022/04/18 02:52:57;;;;;;;75.80;50.75;;;18.40;53.40;;;;;;4950131;28;90196;-36
2022/04/18 02:55:25;;;;;;;76.32;50.55;;;18.40;53.40;;;;;;4958177;28;89869;-40
2022/04/18 02:57:51;;;;;;;75.53;50.45;;;18.40;53.40;;;;;;4949646;28;90096;-34
2022/04/18 03:00:17;;;;;;;75.40;50.50;;;18.40;53.30;;;;;;4949026;28;89708;-38
2022/04/18 03:02:43;;;;;;;76.05;50.60;;;18.40;53.40;;;;;;4946338;28;95039;-39
2022/04/18 03:05:10;;;;;;;75.43;50.60;;;18.40;53.40;;;;;;4948071;28;88920;-38
2022/04/18 03:07:36;;;;;;;75.35;50.70;;;18.40;53.40;;;;;;4943201;28;90270;-42
2022/04/18 03:10:03;;;;;;;75.78;50.53;;;18.40;53.50;;;;;;4942869;28;91642;-35
2022/04/18 03:12:29;;;;;;;75.82;51.00;;;18.40;53.40;;;;;;4949259;28;90630;-36
2022/04/18 03:14:54;;;;;;;75.43;50.50;;;18.40;53.40;;;;;;4954738;28;90824;-39
2022/04/18 03:17:20;;;;;;;75.95;50.42;;;18.30;53.30;;;;;;4947367;28;89871;-39
2022/04/18 03:19:46;;;;;;;75.45;50.53;;;18.30;53.50;;;;;;4948314;28;90544;-39
2022/04/18 03:22:11;;;;;;;74.82;50.42;;;18.40;53.40;;;;;;4946357;28;89916;-38
2022/04/18 03:24:37;;;;;;;75.65;50.65;;;18.30;53.40;;;;;;4951509;28;89657;-34
2022/04/18 03:27:04;;;;;;;74.80;50.55;;;18.30;53.30;;;;;;4947198;28;89901;-38
2022/04/18 03:29:31;;;;;;;74.75;50.40;;;18.30;53.50;;;;;;4950991;28;90868;-34
2022/04/18 03:31:57;;;;;;;74.95;50.53;;;18.30;53.50;;;;;;4950612;28;89804;-39
2022/04/18 03:34:23;;;;;;;74.28;50.22;;;18.30;53.40;;;;;;4950162;28;90784;-37
2022/04/18 03:39:52;;;;;;;75.05;50.63;;;18.20;53.40;;;;;;4948528;28;90242;-39
2022/04/18 03:42:19;;;;;;;74.93;50.30;;;18.20;53.30;;;;;;4945359;28;89795;-39
2022/04/18 03:44:46;;;;;;;75.28;50.70;;;18.20;53.30;;;;;;4950286;28;94988;-38
2022/04/18 03:47:13;;;;;;;74.75;50.40;;;18.20;53.40;;;;;;4954231;28;90275;-38
2022/04/18 03:49:39;;;;;;;75.38;50.60;;;18.20;53.40;;;;;;4948151;28;89874;-38
2022/04/18 03:52:06;;;;;;;74.80;50.42;;;18.20;53.40;;;;;;4951111;28;90018;-36
2022/04/18 03:54:33;;;;;;;75.70;50.55;;;18.20;53.40;;;;;;4954705;28;89150;-34
2022/04/18 03:56:58;;;;;;;75.63;50.67;;;18.20;53.30;;;;;;4948823;28;89924;-34
2022/04/18 03:59:24;;;;;;;74.68;50.38;;;18.20;53.40;;;;;;4948242;28;90884;-34
2022/04/18 04:01:49;;;;;;;74.57;50.45;;;18.10;53.40;;;;;;4949609;28;91134;-34
2022/04/18 04:04:15;;;;;;;74.63;50.25;;;18.10;53.30;;;;;;4948699;28;90206;-35
2022/04/18 04:06:41;;;;;;;76.05;50.53;;;18.10;53.30;;;;;;4949305;28;90135;-40
2022/04/18 04:09:06;;;;;;;74.85;50.33;;;18.10;53.30;;;;;;4945101;28;89860;-39
2022/04/18 04:11:32;;;;;;;76.68;50.35;;;18.10;53.40;;;;;;4937163;28;92356;-40
2022/04/18 04:13:58;;;;;;;75.10;50.47;;;18.10;53.40;;;;;;4947700;28;90115;-34
2022/04/18 04:16:23;;;;;;;74.57;50.25;;;18.10;53.40;;;;;;4951616;28;90244;-36
2022/04/18 04:18:52;;;;;;;74.95;50.55;;;18.10;53.30;;;;;;4949927;28;89246;-35
2022/04/18 04:21:17;;;;;;;74.97;50.42;;;18.10;53.40;;;;;;4944821;28;90229;-39
2022/04/18 04:23:43;;;;;;;74.25;50.30;;;18.10;53.40;;;;;;4949902;28;89774;-38
2022/04/18 04:26:09;;;;;;;74.78;50.47;;;18.10;53.40;;;;;;4945242;28;90987;-39
2022/04/18 04:28:35;;;;;;;74.60;50.40;;;18.00;53.40;;;;;;4945679;28;90527;-38
2022/04/18 04:31:03;;;;;;;75.80;50.50;;;18.00;53.30;;;;;;4945400;28;91821;-37
2022/04/18 04:33:30;;;;;;;74.40;50.05;;;18.00;53.40;;;;;;4944826;28;94532;-38
2022/04/18 04:35:58;;;;;;;74.28;50.20;;;18.00;53.40;;;;;;4950778;28;90045;-34
2022/04/18 04:38:27;;;;;;;74.45;50.35;;;18.00;53.50;;;;;;4943870;28;89916;-40
2022/04/18 04:40:54;;;;;;;75.47;50.38;;;18.00;53.40;;;;;;4943325;28;90056;-39
2022/04/18 04:43:28;;;;;;;75.05;50.15;;;18.00;53.40;;;;;;4944437;28;92069;-40
2022/04/18 04:45:54;;;;;;;74.53;50.45;;;18.00;53.40;;;;;;4943883;28;90728;-37
2022/04/18 04:48:20;;;;;;;74.13;50.15;;;18.00;53.50;;;;;;4947775;28;90122;-37
2022/04/18 04:50:46;;;;;;;74.38;50.35;;;18.00;53.30;;;;;;4946137;28;91068;-37
2022/04/18 04:53:12;;;;;;;74.53;50.35;;;17.90;53.40;;;;;;4949277;28;89770;-38
2022/04/18 04:55:37;;;;;;;74.38;50.25;;;17.90;53.40;;;;;;4948272;28;90693;-39
2022/04/18 04:58:03;;;;;;;74.18;50.25;;;17.90;53.40;;;;;;4958430;28;90931;-36
2022/04/18 05:00:29;;;;;;;74.78;50.25;;;17.90;53.30;;;;;;4947609;28;89924;-39
2022/04/18 05:02:56;;;;;;;74.70;50.45;;;17.90;53.40;;;;;;4946486;28;89693;-36
2022/04/18 05:05:22;;;;;;;75.57;50.17;;;17.90;53.40;;;;;;4943908;28;90575;-38
2022/04/18 05:07:48;;;;;;;73.75;50.05;;;17.90;53.50;;;;;;4948360;28;89713;-41
2022/04/18 05:10:15;;;;;;;74.93;50.13;;;17.90;53.40;;;;;;4942948;28;90548;-34
2022/04/18 05:12:41;;;;;;;74.43;50.33;;;17.90;53.40;;;;;;4943784;28;90456;-37
2022/04/18 05:15:07;;;;;;;74.60;50.40;;;17.90;53.40;;;;;;4941508;28;91459;-37
2022/04/18 05:17:33;;;;;;;74.63;50.28;;;17.80;53.30;;;;;;4949969;28;91957;-39
2022/04/18 05:19:59;;;;;;;74.68;50.33;;;17.90;53.40;;;;;;4949142;28;89823;-37
2022/04/18 05:22:25;;;;;;;74.13;50.25;;;17.80;53.30;;;;;;4958092;28;89744;-36
2022/04/18 05:24:51;;;;;;;74.70;50.30;;;17.80;53.40;;;;;;4949789;28;89668;-35
2022/04/18 05:27:18;;;;;;;73.93;50.00;;;17.80;53.50;;;;;;4954659;28;90304;-38
2022/04/18 05:29:43;;;;;;;74.57;50.13;;;17.80;53.40;;;;;;4953208;28;89961;-41
2022/04/18 05:32:09;;;;;;;74.22;50.13;;;17.80;53.30;;;;;;4948408;28;90133;-37
2022/04/18 05:34:35;;;;;;;75.07;50.65;;;17.80;53.30;;;;;;4952829;28;90065;-39
2022/04/18 05:37:01;;;;;;;74.63;50.38;;;17.80;53.40;;;;;;4951498;28;90066;-41
2022/04/18 05:39:27;;;;;;;75.85;50.10;;;17.80;53.50;;;;;;4942850;28;90986;-40
2022/04/18 05:41:53;;;;;;;73.47;49.83;;;17.80;53.40;;;;;;4946876;28;90764;-36
2022/04/18 05:44:18;;;;;;;74.18;50.22;;;17.80;53.50;;;;;;4946816;28;92741;-40
2022/04/18 05:46:44;;;;;;;75.20;50.33;;;17.70;53.40;;;;;;4948363;28;89946;-35
2022/04/18 05:49:09;;;;;;;75.50;50.13;;;17.80;53.90;;;;;;4952445;28;91244;-39
2022/04/18 05:51:37;;;;;;;76.35;50.20;;;17.70;53.90;;;;;;4945985;28;90976;-37
2022/04/18 05:54:03;;;;;;;76.28;50.10;;;17.80;53.40;;;;;;4949210;28;90676;-40
2022/04/18 05:56:29;;;;;;;77.40;50.55;;;17.80;53.50;;;;;;4949971;28;90376;-38
2022/04/18 05:58:55;;;;;;;78.88;50.45;;;17.80;53.30;;;;;;4949282;28;89686;-40
2022/04/18 06:01:21;;;;;;;74.70;50.40;;;17.70;53.20;;;;;;4954756;28;91016;-39
2022/04/18 06:03:47;;;;;;;76.40;50.28;;;17.80;53.20;;;;;;4947656;28;91130;-40
2022/04/18 06:06:16;;;;;;;75.60;50.45;;;17.80;53.20;;;;;;4944516;28;90509;-40
2022/04/18 06:08:42;;;;;;;76.55;50.40;;;17.70;53.20;;;;;;4945927;28;95202;-42
2022/04/18 06:11:08;;;;;;;77.75;50.13;;;17.70;53.10;;;;;;4940088;28;93413;-41
2022/04/18 06:13:34;;;;;;;77.80;50.50;;;17.80;53.20;;;;;;4945511;28;92111;-35
2022/04/18 06:16:00;;;;;;;76.15;50.65;;;17.80;53.20;;;;;;4948489;28;89972;-35
2022/04/18 06:18:26;;;;;;;76.13;50.42;;;17.70;53.00;;;;;;4952053;28;91244;-39
2022/04/18 06:20:52;;;;;;;76.10;50.75;;;17.80;53.00;;;;;;4946978;28;88957;-38
2022/04/18 06:23:18;;;;;;;75.05;50.35;;;17.80;53.10;;;;;;4955538;28;89399;-41
2022/04/18 06:25:44;;;;;;;76.55;50.53;;;17.80;53.00;;;;;;4948069;28;91083;-35
2022/04/18 06:28:12;;;;;;;76.80;50.58;;;17.80;53.00;;;;;;4960409;28;90791;-37
2022/04/18 06:30:38;;;;;;;78.95;50.63;;;17.80;53.00;;;;;;4947612;28;89946;-37
2022/04/18 06:33:03;;;;;;;75.30;50.55;;;17.80;52.90;;;;;;4949129;28;91053;-38
2022/04/18 06:35:29;;;;;;;75.03;50.33;;;17.80;52.90;;;;;;4961440;28;90003;-40
2022/04/18 06:37:55;;;;;;;75.70;50.42;;;17.80;52.90;;;;;;4956098;28;90568;-39
2022/04/18 06:40:20;;;;;;;78.88;50.47;;;17.80;52.80;;;;;;4951344;28;90296;-37
2022/04/18 06:42:46;;;;;;;74.88;50.63;;;17.80;52.80;;;;;;4949261;28;90297;-39
2022/04/18 06:45:12;;;;;;;76.47;50.40;;;17.80;52.80;;;;;;4954736;28;90299;-37
2022/04/18 06:47:38;;;;;;;75.13;50.05;;;17.80;52.80;;;;;;4952493;28;90265;-41
2022/04/18 06:50:11;;;;;;;75.47;50.38;;;17.80;52.90;;;;;;4950778;28;89928;-41
2022/04/18 06:52:40;;;;;;;74.65;50.33;;;17.80;52.90;;;;;;4949804;28;92569;-38
2022/04/18 06:55:07;;;;;;;75.97;50.58;;;17.90;53.00;;;;;;4949956;28;90788;-38
2022/04/18 06:57:33;;;;;;;76.32;50.67;;;17.90;53.00;;;;;;4950586;28;89989;-40
2022/04/18 06:59:59;;;;;;;75.30;50.78;;;17.90;53.30;;;;;;4949081;28;89891;-38
2022/04/18 07:02:25;;;;;;;76.07;50.60;;;17.90;52.90;;;;;;4945078;28;90868;-39
2022/04/18 07:04:51;;;;;;;75.75;50.80;;;17.90;53.00;;;;;;4943717;28;94197;-38
2022/04/18 07:07:16;;;;;;;76.22;50.78;;;17.90;53.00;;;;;;4939652;28;90037;-35
2022/04/18 07:09:42;;;;;;;78.10;51.00;;;17.90;53.00;;;;;;4947895;28;89103;-36
2022/04/18 07:12:08;;;;;;;76.40;50.90;;;17.90;53.00;;;;;;4941613;28;90228;-40
2022/04/18 07:14:38;;;;;;;77.53;50.53;;;18.00;52.90;;;;;;4946505;28;89658;-36
2022/04/18 07:17:07;;;;;;;76.07;50.60;;;18.00;53.10;;;;;;4936339;28;90617;-39
2022/04/18 07:19:33;;;;;;;79.80;50.97;;;18.00;53.10;;;;;;4949824;28;90391;-38
2022/04/18 07:21:59;;;;;;;80.18;50.55;;;18.00;53.20;;;;;;4950882;28;89854;-36
2022/04/18 07:24:25;;;;;;;77.93;50.72;;;18.00;53.20;;;;;;4944244;28;92524;-40
2022/04/18 07:26:51;;;;;;;80.03;50.97;;;18.00;53.20;;;;;;4944898;28;90594;-34
2022/04/18 07:29:17;;;;;;;78.35;50.80;;;18.10;53.30;;;;;;4948413;28;90098;-37
2022/04/18 07:31:43;;;;;;;76.88;50.95;;;18.10;53.20;;;;;;4944844;28;89981;-39
2022/04/18 07:34:08;;;;;;;79.72;50.85;;;18.00;53.20;;;;;;4947461;28;89909;-39
2022/04/18 07:36:35;;;;;;;78.53;50.83;;;18.10;53.40;;;;;;4939436;28;91955;-40
2022/04/18 07:39:01;;;;;;;81.32;50.80;;;18.10;53.30;;;;;;4949002;28;89785;-42
2022/04/18 07:41:29;;;;;;;76.47;50.78;;;18.10;53.20;;;;;;4944274;28;92781;-40
2022/04/18 07:43:56;;;;;;;80.85;51.25;;;18.10;53.00;;;;;;4941599;28;90099;-38
2022/04/18 07:46:23;;;;;;;79.30;50.92;;;18.10;52.80;;;;;;4943668;28;89962;-35
2022/04/18 07:48:51;;;;;;;82.47;50.83;;;18.10;52.70;;;;;;4949351;28;89948;-41
2022/04/18 07:51:36;;;;;;;81.85;51.20;;;18.20;52.80;;;;;;4941494;28;96115;-38
2022/04/18 07:54:14;;;;;;;79.63;51.28;;;18.20;52.80;;;;;;4940297;28;91418;-39
2022/04/18 07:56:40;;;;;;;80.35;51.67;;;18.20;53.20;;;;;;4944331;28;90263;-39
2022/04/18 07:59:07;;;;;;;81.22;51.75;;;18.20;54.30;;;;;;4951761;28;89193;-39
2022/04/18 08:01:33;;;;;;;85.60;51.63;;;18.30;54.30;;;;;;4938290;28;91223;-38
2022/04/18 08:04:02;;;;;;;86.20;51.38;;;18.20;54.90;;;;;;4942357;28;89684;-42
2022/04/18 08:06:29;;;;;;;85.45;51.65;;;18.30;55.80;;;;;;4933421;28;91894;-36
2022/04/18 08:08:56;;;;;;;83.68;51.65;;;18.30;56.10;;;;;;4944074;28;90048;-41
2022/04/18 08:11:21;;;;;;;83.78;52.00;;;18.30;56.30;;;;;;4940172;28;90479;-40
2022/04/18 08:13:49;;;;;;;85.60;51.50;;;18.30;55.70;;;;;;4945906;28;91367;-40
2022/04/18 08:16:14;;;;;;;83.45;51.92;;;18.30;55.60;;;;;;4943267;28;90612;-38
2022/04/18 08:18:44;;;;;;;85.82;52.28;;;18.40;55.90;;;;;;4946937;28;89951;-37
2022/04/18 08:21:17;;;;;;;85.30;51.58;;;18.40;56.00;;;;;;4948942;28;91663;-36
2022/04/18 08:23:50;;;;;;;105.90;52.85;;;18.40;56.00;;;;;;4949554;28;89988;-39
2022/04/18 08:26:17;;;;;;;91.75;52.22;;;18.40;56.00;;;;;;4949819;28;95161;-42
2022/04/18 08:28:43;;;;;;;84.50;51.83;;;18.50;56.00;;;;;;4943772;28;96576;-36
2022/04/18 08:31:09;;;;;;;80.28;51.67;;;18.40;55.80;;;;;;4941456;28;96615;-37
2022/04/18 08:33:35;;;;;;;90.13;52.55;;;18.50;55.50;;;;;;4949014;28;90852;-38
2022/04/18 08:36:02;;;;;;;90.78;52.17;;;18.50;55.60;;;;;;4952470;28;89559;-41
2022/04/18 08:38:27;;;;;;;86.78;53.08;;;18.50;56.70;;;;;;4946352;28;91476;-42
2022/04/18 08:41:00;;;;;;;90.00;54.70;;;18.60;58.60;;;;;;4946957;28;90167;-36
2022/04/18 08:43:26;;;;;;;91.82;54.97;;;18.60;63.60;;;;;;4942247;28;90626;-38
2022/04/18 08:45:53;;;;;;;95.13;56.50;;;18.70;67.80;;;;;;4948147;28;89905;-39
2022/04/18 08:53:50;;;;;;;96.05;56.60;;;18.80;66.60;;;;;;4949591;28;91872;-35
2022/04/18 08:56:15;;;;;;;90.00;55.10;;;18.80;68.80;;;;;;4961168;28;92131;-38
2022/04/18 08:58:41;;;;;;;90.15;54.67;;;18.80;67.60;;;;;;4950084;28;90975;-40
2022/04/18 09:01:07;;;;;;;92.10;54.88;;;18.80;64.70;;;;;;4937150;28;90141;-40
2022/04/18 09:03:34;;;;;;;106.35;57.58;;;18.90;62.70;;;;;;4942816;28;90815;-37
2022/04/18 09:06:11;;;;;;;96.38;55.70;;;18.90;62.80;;;;;;4943767;28;89808;-40
2022/04/18 09:08:54;;;;;;;91.15;55.40;;;18.90;61.70;;;;;;4933442;28;91778;-40
2022/04/18 09:11:33;;;;;;;100.13;55.45;;;18.90;60.60;;;;;;4934786;28;91283;-37
2022/04/18 09:14:08;;;;;;;96.03;55.83;;;19.00;60.20;;;;;;4930877;28;92045;-41
2022/04/18 09:16:35;;;;;;;100.80;57.45;;;19.00;59.80;;;;;;4938777;28;89807;-41
2022/04/18 09:19:12;;;;;;;97.25;55.92;;;19.00;59.30;;;;;;4941627;28;91225;-38
2022/04/18 09:21:56;;;;;;;95.28;56.13;;;19.10;59.10;;;;;;4944200;28;90917;-42
2022/04/18 09:24:35;;;;;;;100.35;55.42;;;19.10;58.50;;;;;;4938123;28;90828;-39
2022/04/18 09:27:06;;;;;;;95.25;55.50;;;19.10;57.10;;;;;;4946958;28;90366;-35
2022/04/18 09:29:38;;;;;;;94.40;55.10;;;19.10;56.20;;;;;;4945909;28;90079;-39
2022/04/18 09:32:11;;;;;;;91.22;54.88;;;19.10;55.90;;;;;;4942997;28;89959;-38
2022/04/18 09:34:39;;;;;;;92.63;55.15;;;19.20;55.20;;;;;;4937207;28;91309;-40
2022/04/18 09:37:12;;;;;;;90.22;54.97;;;19.20;54.50;;;;;;4941472;28;90253;-40
2022/04/18 09:39:44;;;;;;;89.93;55.33;;;19.20;54.00;;;;;;4950706;28;89389;-41
2022/04/18 09:42:11;;;;;;;92.18;55.15;;;19.20;53.70;;;;;;4939882;28;91309;-41
2022/04/18 09:44:37;;;;;;;91.63;54.92;;;19.30;53.70;;;;;;4941149;28;90213;-38
2022/04/18 09:47:04;;;;;;;92.40;54.75;;;19.30;53.30;;;;;;4942297;28;90772;-39
2022/04/18 09:49:39;;;;;;;89.50;55.00;;;19.30;53.00;;;;;;4940142;28;90271;-37
2022/04/18 09:52:11;;;;;;;90.07;54.90;;;19.40;52.90;;;;;;4946974;28;91436;-37
2022/04/18 09:54:46;;;;;;;;;;;19.40;53.30;;;;;;4942552;28;90488;-38
2022/04/18 09:57:12;;;;;;;96.53;55.55;;;19.40;53.90;;;;;;4942557;28;89753;-42
2022/04/18 09:59:39;;;;;;;92.75;55.72;;;19.50;54.70;;;;;;4942724;28;90566;-38
2022/04/18 10:02:11;;;;;;;92.50;55.47;;;19.50;56.20;;;;;;4944145;28;91144;-37
2022/04/18 10:04:37;;;;;;;97.13;55.78;;;19.50;55.80;;;;;;4939095;28;89644;-38
2022/04/18 10:07:04;;;;;;;90.72;55.60;;;19.60;55.70;;;;;;4948284;28;89869;-39
2022/04/18 10:09:30;;;;;;;91.88;55.90;;;19.70;55.30;;;;;;4945150;28;90195;-40
2022/04/18 10:11:57;;;;;;;96.90;56.13;;;19.70;55.10;;;;;;4939519;28;90856;-39
2022/04/18 10:14:23;;;;;;;96.80;55.45;;;19.70;55.40;;;;;;4926074;28;97601;-36
2022/04/18 10:16:49;;;;;;;162.27;64.95;;;19.80;55.70;;;;;;4944092;28;91277;-41
2022/04/18 10:19:45;;;;;;;123.90;60.60;;;19.80;56.10;;;;;;4941949;28;90642;-39
2022/04/18 10:22:45;;;;;;;116.07;59.15;;;19.90;55.80;;;;;;4950440;28;90830;-40
2022/04/18 10:25:22;;;;;;;108.30;59.13;;;19.90;55.00;;;;;;4942289;28;91008;-41
2022/04/18 10:28:04;;;;;;;112.50;58.45;;;20.00;54.50;;;;;;4939852;28;90308;-42
2022/04/18 10:30:37;;;;;;;104.32;57.85;;;20.00;55.00;;;;;;4947915;28;89400;-34
2022/04/18 10:33:04;;;;;;;103.60;57.53;;;20.10;54.60;;;;;;4942387;28;89915;-38
2022/04/18 10:35:30;;;;;;;115.13;60.10;;;20.10;54.30;;;;;;4942978;28;99053;-40
2022/04/18 10:37:56;;;;;;;101.18;59.17;;;20.10;54.80;;;;;;4944276;28;96727;-39
2022/04/18 10:40:23;;;;;;;105.78;58.80;;;20.10;54.90;;;;;;4944166;28;90114;-41
2022/04/18 10:42:49;;;;;;;112.40;62.72;;;20.20;55.40;;;;;;4942919;28;90761;-39
2022/04/18 10:45:19;;;;;;;102.93;58.95;;;20.20;56.00;;;;;;4939250;28;90665;-36
2022/04/18 10:48:01;;;;;;;101.80;58.78;;;20.30;56.20;;;;;;4943307;28;91071;-36
2022/04/18 10:50:34;;;;;;;95.72;57.78;;;20.30;56.10;;;;;;4940125;28;91288;-39
2022/04/18 10:53:08;;;;;;;96.68;57.25;;;20.30;55.60;;;;;;4943506;28;91832;-40
2022/04/18 10:55:35;;;;;;;92.82;56.25;;;20.30;54.80;;;;;;4934784;28;89665;-40
2022/04/18 10:58:13;;;;;;;93.65;55.80;;;20.30;53.80;;;;;;4935409;28;94990;-39
2022/04/18 11:00:56;;;;;;;95.18;55.63;;;20.30;53.30;;;;;;4945774;28;90254;-35
2022/04/18 11:03:40;;;;;;;89.97;55.50;;;20.40;52.60;;;;;;4940393;28;91026;-39
2022/04/18 11:06:17;;;;;;;92.35;55.45;;;20.40;52.00;;;;;;4937110;28;95563;-39
2022/04/18 11:09:01;;;;;;;87.18;54.95;;;20.40;52.00;;;;;;4938700;28;89944;-41
2022/04/18 11:11:44;;;;;;;88.03;54.55;;;20.40;51.40;;;;;;4944687;28;97726;-41
2022/04/18 11:14:17;;;;;;;88.18;55.08;;;20.40;50.90;;;;;;4939007;28;91134;-40
2022/04/18 11:16:43;;;;;;;86.57;54.63;;;20.40;49.80;;;;;;4937194;28;92413;-37
2022/04/18 11:19:20;;;;;;;87.03;54.28;;;20.40;49.20;;;;;;4943788;28;90566;-39
2022/04/18 11:21:56;;;;;;;89.85;54.88;;;20.40;48.40;;;;;;4940085;28;89276;-39
2022/04/18 11:24:40;;;;;;;93.22;55.03;;;20.40;48.00;;;;;;4938945;28;92123;-37
2022/04/18 11:27:16;;;;;;;92.20;54.70;;;20.50;48.10;;;;;;4940766;28;90443;-37
2022/04/18 11:29:54;;;;;;;91.60;55.15;;;20.50;47.50;;;;;;4942290;28;90975;-37
2022/04/18 11:32:25;;;;;;;111.97;56.17;;;20.50;47.00;;;;;;4944068;28;90080;-40
2022/04/18 11:34:54;;;;;;;96.05;55.42;;;20.50;47.10;;;;;;4946397;28;90112;-42
2022/04/18 11:37:27;;;;;;;102.05;55.65;;;20.60;47.00;;;;;;4944890;28;90448;-40
2022/04/18 11:39:57;;;;;;;96.03;55.47;;;20.50;46.70;;;;;;4948866;28;89924;-36
2022/04/18 11:42:29;;;;;;;97.00;55.03;;;20.60;46.50;;;;;;4939701;28;89544;-39
2022/04/18 11:44:57;;;;;;;96.13;55.10;;;20.60;46.70;;;;;;4935039;28;90694;-40
2022/04/18 11:47:47;;;;;;;93.22;55.25;;;20.60;46.60;;;;;;4939163;28;95725;-39
2022/04/18 11:50:15;;;;;;;97.28;55.08;;;20.60;46.70;;;;;;4948119;28;89990;-38
2022/04/18 11:52:41;;;;;;;93.70;55.03;;;20.60;46.90;;;;;;4946201;28;90825;-38
2022/04/18 11:55:15;;;;;;;92.20;54.83;;;20.60;47.20;;;;;;4943475;28;91258;-41
2022/04/18 11:57:43;;;;;;;93.25;55.05;;;20.60;48.20;;;;;;4944273;28;90211;-38
2022/04/18 12:00:12;;;;;;;95.65;54.83;;;20.70;48.10;;;;;;4941857;28;95309;-40
2022/04/18 12:08:12;;;;;;;91.32;54.83;;;20.60;48.70;;;;;;4947603;28;90143;-38
2022/04/18 12:10:41;;;;;;;89.78;54.40;;;20.60;48.90;;;;;;4942474;28;91883;-36
2022/04/18 12:13:14;;;;;;;92.00;54.90;;;20.60;49.00;;;;;;4941629;28;88955;-40
2022/04/18 12:15:42;;;;;;;88.50;54.15;;;20.60;49.10;;;;;;4939402;28;91283;-37
2022/04/18 12:18:08;;;;;;;88.43;54.92;;;20.60;49.20;;;;;;4942260;28;95912;-38
2022/04/18 12:20:34;;;;;;;89.53;54.95;;;20.60;49.20;;;;;;4946859;28;90893;-37
2022/04/18 12:23:02;;;;;;;92.05;54.53;;;20.60;49.20;;;;;;4938979;28;90249;-38
2022/04/18 12:25:31;;;;;;;92.50;54.28;;;20.60;49.20;;;;;;4944062;28;90163;-40
2022/04/18 12:27:58;;;;;;;88.88;54.47;;;20.60;49.20;;;;;;4936072;28;93671;-39
2022/04/18 12:30:25;;;;;;;86.53;54.33;;;20.60;49.20;;;;;;4936520;28;91637;-39
2022/04/18 12:32:54;;;;;;;90.03;54.42;;;20.60;49.20;;;;;;4945140;28;90532;-37
2022/04/18 12:35:39;;;;;;;86.75;54.17;;;20.70;49.20;;;;;;4941806;28;90591;-40
2022/04/18 12:38:07;;;;;;;85.70;54.47;;;20.70;49.30;;;;;;4943178;28;91000;-41
2022/04/18 12:40:41;;;;;;;86.85;54.28;;;20.60;49.20;;;;;;4942297;28;92717;-39
2022/04/18 12:43:08;;;;;;;87.70;54.40;;;20.70;49.30;;;;;;4936472;28;90289;-39
2022/04/18 12:45:56;;;;;;;88.38;54.53;;;20.70;49.30;;;;;;4938310;28;91347;-41
2022/04/18 12:48:28;;;;;;;90.05;54.55;;;20.70;49.30;;;;;;4942882;28;91915;-38
2022/04/18 12:50:56;;;;;;;88.80;54.55;;;20.70;49.40;;;;;;4938006;28;91036;-39